Time;durP1;ratioP1;P1;durP2;ratioP2;P2;SDS_P1;SDS_P2;PMS_P1;PMS_P2;Temp;Humidity;BMP_temperature;BMP_pressure;BME280_temperature;BME280_humidity;BME280_pressure;Samples;Min_cycle;Max_cycle;Signal;HPM_P1;HPM_P2
2022/04/09 00:02:13;;;;;;;3.00;2.60;;;3.50;80.30;;;;;;4991299;28;20499;-47
2022/04/09 00:04:39;;;;;;;3.47;2.43;;;3.50;83.20;;;;;;4978712;28;20875;-47
2022/04/09 00:07:06;;;;;;;2.43;2.23;;;3.50;86.40;;;;;;4988202;28;20556;-47
2022/04/09 00:09:33;;;;;;;4.23;2.30;;;3.50;87.00;;;;;;4974873;28;20481;-47
2022/04/09 00:12:00;;;;;;;2.87;2.40;;;3.60;89.70;;;;;;4990904;28;20567;-48
2022/04/09 00:14:26;;;;;;;2.47;1.93;;;3.60;93.50;;;;;;4979766;28;20541;-48
2022/04/09 00:16:53;;;;;;;3.87;2.20;;;3.60;96.20;;;;;;4979911;28;20502;-47
2022/04/09 00:19:20;;;;;;;2.60;1.93;;;3.60;95.40;;;;;;4985639;28;20570;-48
2022/04/09 00:21:47;;;;;;;3.27;2.20;;;3.60;89.60;;;;;;4987365;28;20500;-47
2022/04/09 00:24:13;;;;;;;3.23;1.97;;;3.60;93.20;;;;;;4988390;28;20958;-48
2022/04/09 00:26:41;;;;;;;3.90;2.27;;;3.60;93.10;;;;;;4990710;28;20875;-47
2022/04/09 00:29:08;;;;;;;4.33;2.47;;;3.60;93.90;;;;;;4978753;28;20902;-47
2022/04/09 00:31:35;;;;;;;2.87;1.80;;;3.50;92.90;;;;;;4982217;28;21085;-48
2022/04/09 00:34:02;;;;;;;5.23;2.40;;;3.50;94.40;;;;;;4973674;28;20900;-48
2022/04/09 00:36:28;;;;;;;2.40;1.97;;;3.60;96.20;;;;;;4985533;28;20528;-48
2022/04/09 00:38:55;;;;;;;4.70;2.37;;;3.50;97.10;;;;;;4979816;28;20464;-48
2022/04/09 00:41:21;;;;;;;2.33;2.20;;;3.50;94.80;;;;;;4988707;28;20498;-47
2022/04/09 00:43:49;;;;;;;5.43;2.47;;;3.50;98.40;;;;;;4987288;28;20472;-47
2022/04/09 00:46:16;;;;;;;7.60;2.33;;;3.40;97.00;;;;;;4979904;28;20450;-47
2022/04/09 00:48:44;;;;;;;2.90;2.70;;;3.50;99.10;;;;;;4981984;28;20541;-47
2022/04/09 00:51:11;;;;;;;3.73;2.07;;;3.50;96.50;;;;;;4990282;28;20564;-48
2022/04/09 00:53:39;;;;;;;3.17;1.77;;;3.50;99.90;;;;;;4990228;28;21025;-47
2022/04/09 00:56:16;;;;;;;6.30;2.37;;;3.50;99.90;;;;;;4984387;28;20464;-47
2022/04/09 00:58:48;;;;;;;3.03;1.50;;;3.50;99.90;;;;;;4985505;28;20520;-47
2022/04/09 01:01:18;;;;;;;3.23;2.03;;;3.50;99.90;;;;;;4978223;28;20548;-47
2022/04/09 01:03:45;;;;;;;2.90;2.03;;;3.50;99.90;;;;;;4976896;28;20453;-47
2022/04/09 01:06:13;;;;;;;5.23;2.23;;;3.50;99.90;;;;;;4984060;28;20576;-47
2022/04/09 01:08:39;;;;;;;7.83;2.80;;;3.50;99.90;;;;;;4988523;28;20591;-47
2022/04/09 01:11:06;;;;;;;2.17;1.93;;;3.50;99.90;;;;;;4984896;28;20497;-47
2022/04/09 01:13:32;;;;;;;2.93;2.57;;;3.50;99.90;;;;;;4988657;28;20575;-48
2022/04/09 01:15:59;;;;;;;4.20;2.40;;;3.40;99.90;;;;;;4983775;28;20576;-46
2022/04/09 01:18:27;;;;;;;8.67;2.87;;;3.50;99.90;;;;;;4985515;28;21018;-47
2022/04/09 01:20:58;;;;;;;7.17;2.33;;;3.40;99.90;;;;;;4988074;28;20460;-48
2022/04/09 01:23:25;;;;;;;3.63;2.17;;;3.40;99.90;;;;;;5061355;23;20520;-50
2022/04/09 01:25:52;;;;;;;2.37;1.90;;;3.40;99.90;;;;;;5041460;28;20565;-50
2022/04/09 01:28:19;;;;;;;2.93;1.80;;;3.40;99.90;;;;;;5046084;28;20541;-50
2022/04/09 01:30:45;;;;;;;6.07;2.27;;;3.40;99.90;;;;;;5045019;28;20899;-50
2022/04/09 01:33:16;;;;;;;4.00;2.17;;;3.30;99.90;;;;;;5027387;28;20581;-51
2022/04/09 01:35:42;;;;;;;6.10;2.20;;;3.30;99.90;;;;;;5031229;28;20458;-50
2022/04/09 01:38:09;;;;;;;3.80;1.70;;;3.40;99.90;;;;;;5030811;28;20498;-50
2022/04/09 01:40:37;;;;;;;5.00;2.00;;;3.30;99.90;;;;;;5030796;28;21147;-51
2022/04/09 01:43:04;;;;;;;8.23;2.80;;;3.30;99.90;;;;;;5033134;28;20506;-51
2022/04/09 01:45:30;;;;;;;3.43;2.10;;;3.30;97.80;;;;;;5027388;28;20550;-51
2022/04/09 01:47:59;;;;;;;6.00;2.17;;;3.30;99.80;;;;;;5021740;28;20542;-51
2022/04/09 01:50:26;;;;;;;5.97;2.40;;;3.30;99.20;;;;;;5033877;28;20462;-51
2022/04/09 01:52:53;;;;;;;9.73;2.67;;;3.30;97.30;;;;;;5038512;28;20479;-51
2022/04/09 01:55:19;;;;;;;4.73;2.27;;;3.30;96.20;;;;;;5041762;28;20529;-51
2022/04/09 01:57:48;;;;;;;3.60;2.07;;;3.30;99.50;;;;;;5034083;28;21441;-51
2022/04/09 02:00:16;;;;;;;5.60;2.70;;;3.30;99.90;;;;;;5026156;28;20585;-51
2022/04/09 02:02:43;;;;;;;4.87;1.63;;;3.40;99.90;;;;;;5033706;28;20568;-51
2022/04/09 02:05:12;;;;;;;4.07;2.20;;;3.40;99.90;;;;;;5026019;28;20900;-50
2022/04/09 02:07:38;;;;;;;5.37;2.00;;;3.40;99.40;;;;;;5032381;28;21098;-50
2022/04/09 02:10:06;;;;;;;2.10;1.90;;;3.40;99.90;;;;;;5035133;28;20929;-49
2022/04/09 02:12:34;;;;;;;5.70;1.90;;;3.40;99.90;;;;;;5039503;28;20573;-50
2022/04/09 02:15:03;;;;;;;5.37;2.10;;;3.40;98.90;;;;;;5034651;28;20495;-50
2022/04/09 02:17:29;;;;;;;5.13;2.07;;;3.40;99.90;;;;;;5037192;28;20550;-49
2022/04/09 02:19:56;;;;;;;5.30;2.87;;;3.30;97.80;;;;;;5039998;28;20546;-49
2022/04/09 02:22:23;;;;;;;6.00;1.87;;;3.30;95.90;;;;;;5029018;28;20486;-50
2022/04/09 02:24:50;;;;;;;3.43;1.80;;;3.30;97.40;;;;;;5037576;28;20485;-50
2022/04/09 02:27:17;;;;;;;4.80;2.50;;;3.30;94.70;;;;;;5033135;28;20885;-50
2022/04/09 02:29:45;;;;;;;4.17;2.07;;;3.20;90.50;;;;;;5032904;28;20497;-50
2022/04/09 02:32:13;;;;;;;8.13;2.77;;;3.20;89.90;;;;;;5030714;28;20518;-51
2022/04/09 02:34:39;;;;;;;3.80;2.50;;;3.20;88.40;;;;;;5034147;28;20543;-50
2022/04/09 02:37:06;;;;;;;4.50;2.13;;;3.20;86.30;;;;;;5039695;28;20533;-50
2022/04/09 02:39:32;;;;;;;3.10;2.60;;;3.20;86.80;;;;;;5025473;28;20510;-50
2022/04/09 02:41:59;;;;;;;7.67;2.63;;;3.10;81.80;;;;;;5030571;28;20510;-50
2022/04/09 02:44:25;;;;;;;4.47;2.43;;;3.10;82.50;;;;;;5034342;28;20901;-50
2022/04/09 02:46:52;;;;;;;3.30;2.13;;;3.00;78.70;;;;;;5023297;28;20467;-50
2022/04/09 02:49:20;;;;;;;8.10;2.50;;;3.00;75.40;;;;;;5030636;28;20573;-50
2022/04/09 02:51:46;;;;;;;2.93;2.20;;;3.00;75.70;;;;;;5033784;28;20548;-50
2022/04/09 02:54:15;;;;;;;2.83;2.17;;;2.90;68.60;;;;;;5039732;28;20461;-50
2022/04/09 02:56:42;;;;;;;9.73;3.10;;;2.90;69.80;;;;;;5044213;28;20510;-51
2022/04/09 02:59:09;;;;;;;7.67;2.60;;;2.80;65.80;;;;;;5033802;28;21965;-50
2022/04/09 03:01:36;;;;;;;4.10;2.10;;;2.80;63.50;;;;;;5037664;28;20463;-50
2022/04/09 03:04:03;;;;;;;4.87;2.27;;;2.80;61.90;;;;;;5033408;28;20534;-50
2022/04/09 03:06:31;;;;;;;4.00;2.80;;;2.70;59.50;;;;;;5034435;28;21028;-53
2022/04/09 03:08:57;;;;;;;6.53;2.10;;;2.70;56.60;;;;;;5033395;28;20534;-53
2022/04/09 03:11:24;;;;;;;3.77;1.93;;;2.70;55.00;;;;;;5037010;28;20536;-50
2022/04/09 03:13:50;;;;;;;4.33;1.90;;;2.60;54.60;;;;;;5038409;28;20565;-50
2022/04/09 03:16:17;;;;;;;9.67;2.30;;;2.60;48.70;;;;;;5043806;28;21026;-50
2022/04/09 03:18:43;;;;;;;2.87;1.93;;;2.60;46.40;;;;;;5041103;28;20530;-50
2022/04/09 03:21:10;;;;;;;5.87;2.10;;;2.60;45.30;;;;;;5034117;28;20918;-50
2022/04/09 03:23:38;;;;;;;2.40;2.20;;;2.60;43.50;;;;;;5035900;28;21066;-51
2022/04/09 03:26:05;;;;;;;4.83;2.53;;;2.60;41.20;;;;;;5039983;28;20537;-50
2022/04/09 03:28:31;;;;;;;3.27;2.20;;;2.60;33.40;;;;;;5045844;28;20462;-50
2022/04/09 03:30:58;;;;;;;2.43;2.23;;;2.60;39.70;;;;;;5042081;28;20542;-50
2022/04/09 03:33:25;;;;;;;5.10;2.20;;;2.60;41.30;;;;;;5041327;28;20911;-50
2022/04/09 03:35:52;;;;;;;5.53;2.60;;;2.50;36.20;;;;;;5047703;28;21026;-50
2022/04/09 03:38:19;;;;;;;3.43;2.40;;;2.50;39.60;;;;;;5038050;28;20479;-50
2022/04/09 03:40:47;;;;;;;4.47;2.10;;;2.50;36.40;;;;;;5033757;28;21015;-51
2022/04/09 03:43:13;;;;;;;3.10;2.00;;;2.50;34.10;;;;;;5036174;28;20466;-51
2022/04/09 03:45:40;;;;;;;6.30;2.27;;;2.40;34.70;;;;;;5041349;28;20537;-50
2022/04/09 03:48:07;;;;;;;5.03;2.20;;;2.50;27.90;;;;;;5037923;28;20529;-50
2022/04/09 03:50:33;;;;;;;10.67;2.97;;;2.50;29.20;;;;;;5045252;28;20465;-50
2022/04/09 03:53:01;;;;;;;5.90;2.60;;;2.40;30.40;;;;;;5033166;28;20580;-50
2022/04/09 03:55:28;;;;;;;4.40;2.53;;;2.40;22.00;;;;;;5039965;28;20442;-50
2022/04/09 03:57:56;;;;;;;2.97;2.40;;;2.30;24.90;;;;;;5027960;28;20482;-50
2022/04/09 04:00:23;;;;;;;6.67;2.23;;;2.40;21.40;;;;;;5030482;28;21182;-51
2022/04/09 04:02:50;;;;;;;7.43;2.47;;;2.40;92.30;;;;;;5030803;28;20689;-50
2022/04/09 04:05:17;;;;;;;6.73;2.47;;;2.40;20.90;;;;;;5047355;28;20456;-50
2022/04/09 04:07:45;;;;;;;5.67;2.87;;;2.40;87.70;;;;;;5041092;28;20525;-50
2022/04/09 04:10:12;;;;;;;4.47;2.03;;;2.40;95.40;;;;;;5046504;28;20532;-50
2022/04/09 04:12:40;;;;;;;4.70;2.70;;;2.40;89.50;;;;;;5032768;28;20572;-51
2022/04/09 04:15:09;;;;;;;6.03;2.37;;;2.40;99.90;;;;;;5033399;28;20465;-50
2022/04/09 04:17:40;;;;;;;4.43;1.97;;;2.30;99.90;;;;;;5044226;28;20442;-50
2022/04/09 04:20:08;;;;;;;11.00;2.40;;;2.30;99.90;;;;;;5037206;28;20454;-50
2022/04/09 04:22:35;;;;;;;4.50;2.00;;;2.30;99.90;;;;;;5041395;28;20501;-50
2022/04/09 04:25:03;;;;;;;6.97;2.53;;;2.40;99.90;;;;;;5043497;28;20944;-50
2022/04/09 04:27:29;;;;;;;3.30;1.63;;;2.40;99.90;;;;;;5035598;28;20458;-50
2022/04/09 04:29:59;;;;;;;4.30;2.17;;;2.30;99.90;;;;;;5033317;28;20458;-50
2022/04/09 04:32:27;;;;;;;4.43;2.40;;;2.30;99.90;;;;;;5044406;28;20462;-50
2022/04/09 04:34:53;;;;;;;6.90;2.13;;;2.30;99.90;;;;;;5033633;28;20546;-51
2022/04/09 04:37:20;;;;;;;5.23;2.80;;;2.30;99.90;;;;;;5035043;28;20533;-53
2022/04/09 04:39:47;;;;;;;3.63;2.20;;;2.30;99.90;;;;;;5037794;28;20526;-53
2022/04/09 04:42:13;;;;;;;5.97;2.30;;;2.20;99.90;;;;;;5033509;28;20988;-53
2022/04/09 04:44:40;;;;;;;4.13;2.40;;;2.20;99.90;;;;;;5039388;28;20520;-53
2022/04/09 04:47:07;;;;;;;5.90;2.17;;;2.20;99.90;;;;;;5041650;28;20530;-53
2022/04/09 04:49:35;;;;;;;4.07;2.30;;;2.20;99.90;;;;;;5045734;28;20449;-53
2022/04/09 04:52:03;;;;;;;4.93;2.17;;;2.20;99.90;;;;;;5035839;28;21079;-53
2022/04/09 04:54:30;;;;;;;2.70;2.10;;;2.20;99.90;;;;;;5036445;28;20483;-53
2022/04/09 04:56:56;;;;;;;9.53;2.23;;;2.20;99.90;;;;;;5040835;28;20859;-53
2022/04/09 04:59:23;;;;;;;2.60;2.40;;;2.30;99.90;;;;;;5036203;28;20579;-52
2022/04/09 05:01:49;;;;;;;5.03;2.47;;;2.30;99.90;;;;;;5037955;28;20940;-53
2022/04/09 05:04:17;;;;;;;6.03;2.53;;;2.40;99.90;;;;;;5030271;28;20537;-53
2022/04/09 05:06:45;;;;;;;9.97;3.27;;;2.40;99.90;;;;;;5038910;28;20540;-53
2022/04/09 05:09:13;;;;;;;7.03;2.23;;;2.40;99.90;;;;;;5032630;28;20451;-53
2022/04/09 05:11:39;;;;;;;7.03;2.80;;;2.40;99.90;;;;;;5046690;28;20466;-53
2022/04/09 05:14:06;;;;;;;6.97;2.57;;;2.50;99.90;;;;;;5034795;28;20569;-53
2022/04/09 05:16:33;;;;;;;8.70;2.80;;;2.50;99.90;;;;;;5032102;28;20522;-53
2022/04/09 05:18:59;;;;;;;11.50;3.00;;;2.50;20.10;;;;;;5031824;28;20512;-53
2022/04/09 05:21:26;;;;;;;5.80;2.60;;;2.50;89.00;;;;;;5032095;28;20510;-53
2022/04/09 05:23:54;;;;;;;6.63;2.10;;;2.60;20.70;;;;;;5039982;28;20558;-53
2022/04/09 05:26:20;;;;;;;6.90;2.23;;;2.60;23.30;;;;;;5046062;28;20550;-53
2022/04/09 05:28:52;;;;;;;8.60;1.90;;;2.70;26.40;;;;;;5035283;28;20533;-53
2022/04/09 05:31:20;;;;;;;13.10;3.23;;;2.70;30.50;;;;;;5037519;28;20521;-53
2022/04/09 05:33:46;;;;;;;4.60;1.90;;;2.70;32.20;;;;;;5049184;28;20478;-53
2022/04/09 05:36:13;;;;;;;9.10;2.23;;;2.80;29.50;;;;;;5035106;28;20541;-53
2022/04/09 05:38:39;;;;;;;7.07;3.47;;;2.80;45.30;;;;;;5046384;28;20955;-52
2022/04/09 05:41:07;;;;;;;3.73;2.07;;;2.80;39.80;;;;;;5038049;28;20529;-52
2022/04/09 05:43:34;;;;;;;8.30;3.43;;;2.90;41.70;;;;;;5035904;28;20855;-53
2022/04/09 05:46:00;;;;;;;9.07;2.60;;;3.00;48.00;;;;;;5032804;28;20549;-51
2022/04/09 05:48:27;;;;;;;9.00;3.03;;;3.10;47.20;;;;;;5035461;28;20530;-51
2022/04/09 05:50:53;;;;;;;6.23;2.53;;;3.30;61.90;;;;;;5046960;28;20537;-52
2022/04/09 05:53:20;;;;;;;2.33;2.13;;;3.40;77.10;;;;;;5035005;28;20577;-52
2022/04/09 05:55:46;;;;;;;5.60;2.30;;;3.40;81.30;;;;;;5034760;28;20537;-51
2022/04/09 05:58:14;;;;;;;8.40;2.37;;;3.50;86.00;;;;;;5041505;28;20479;-52
2022/04/09 06:00:41;;;;;;;8.57;2.57;;;3.50;94.70;;;;;;5043505;28;20451;-52
2022/04/09 06:03:07;;;;;;;6.60;2.40;;;3.60;88.00;;;;;;5032041;28;20481;-52
2022/04/09 06:05:34;;;;;;;6.13;2.80;;;3.60;95.70;;;;;;5042706;28;20520;-52
2022/04/09 06:08:01;;;;;;;8.60;2.57;;;3.70;96.00;;;;;;5046117;28;20447;-51
2022/04/09 06:10:27;;;;;;;7.93;2.50;;;3.80;99.90;;;;;;5032649;28;20972;-52
2022/04/09 06:12:54;;;;;;;8.40;3.90;;;3.90;99.90;;;;;;5049523;28;20510;-52
2022/04/09 06:15:22;;;;;;;6.97;2.90;;;4.10;99.90;;;;;;5043049;28;20538;-52
2022/04/09 06:17:49;;;;;;;4.83;2.67;;;4.40;99.90;;;;;;5038457;28;20466;-52
2022/04/09 06:20:16;;;;;;;8.73;3.30;;;4.50;99.90;;;;;;5043169;28;20549;-51
2022/04/09 06:22:43;;;;;;;4.93;2.00;;;4.40;99.90;;;;;;5035564;28;20914;-52
2022/04/09 06:25:10;;;;;;;7.10;3.20;;;4.60;99.90;;;;;;5043222;28;20526;-52
2022/04/09 06:27:39;;;;;;;6.77;2.70;;;4.60;99.90;;;;;;5038872;28;20526;-52
2022/04/09 06:30:06;;;;;;;5.97;2.83;;;4.60;99.90;;;;;;5035532;28;20454;-52
2022/04/09 06:32:34;;;;;;;4.80;2.70;;;4.50;99.90;;;;;;5043378;28;20556;-52
2022/04/09 06:35:00;;;;;;;9.87;2.87;;;4.70;99.90;;;;;;5032890;28;20912;-52
2022/04/09 06:37:27;;;;;;;4.60;2.50;;;4.70;99.90;;;;;;5027113;28;20532;-52
2022/04/09 06:39:55;;;;;;;10.13;2.70;;;4.70;99.90;;;;;;5039558;28;20537;-52
2022/04/09 06:42:21;;;;;;;9.63;2.17;;;4.80;99.90;;;;;;5040838;28;20478;-52
2022/04/09 06:44:48;;;;;;;5.20;2.40;;;4.90;99.90;;;;;;5045930;28;20451;-52
2022/04/09 06:47:14;;;;;;;4.40;2.03;;;4.80;99.90;;;;;;5051959;28;20569;-52
2022/04/09 06:49:42;;;;;;;7.20;2.20;;;4.90;99.90;;;;;;5034317;28;20896;-52
2022/04/09 06:52:08;;;;;;;8.73;2.73;;;5.20;99.90;;;;;;5033464;28;20554;-52
2022/04/09 06:54:35;;;;;;;12.67;2.60;;;5.20;99.90;;;;;;5034111;28;20922;-52
2022/04/09 06:57:01;;;;;;;16.00;3.13;;;5.30;99.90;;;;;;5044029;28;20541;-52
2022/04/09 06:59:28;;;;;;;6.60;3.07;;;5.50;99.90;;;;;;5039101;28;20534;-52
2022/04/09 07:01:54;;;;;;;7.63;3.40;;;5.50;99.90;;;;;;5044138;28;20505;-52
2022/04/09 07:04:21;;;;;;;5.50;2.43;;;5.50;99.90;;;;;;5043374;28;20542;-53
2022/04/09 07:06:49;;;;;;;3.33;2.63;;;5.60;99.90;;;;;;5023270;28;20563;-52
2022/04/09 07:09:15;;;;;;;8.63;2.40;;;5.70;99.90;;;;;;5024515;28;20554;-52
2022/04/09 07:11:42;;;;;;;7.13;2.50;;;5.60;99.90;;;;;;5032265;28;20550;-52
2022/04/09 07:14:08;;;;;;;5.93;3.23;;;5.60;99.90;;;;;;5032968;28;20930;-52
2022/04/09 07:16:35;;;;;;;9.77;2.40;;;5.60;99.90;;;;;;5032988;28;20526;-52
2022/04/09 07:19:02;;;;;;;6.77;2.97;;;5.40;99.90;;;;;;5032866;28;21004;-52
2022/04/09 07:21:28;;;;;;;4.63;2.20;;;5.50;99.90;;;;;;5032123;28;20473;-52
2022/04/09 07:23:56;;;;;;;14.70;3.70;;;5.30;99.90;;;;;;5032180;28;20447;-52
2022/04/09 07:26:23;;;;;;;15.50;3.27;;;5.50;99.90;;;;;;5033401;28;20996;-53
2022/04/09 07:28:49;;;;;;;5.50;3.07;;;5.50;99.90;;;;;;5029023;28;20486;-54
2022/04/09 07:31:16;;;;;;;9.00;2.87;;;5.50;99.90;;;;;;5032853;28;20896;-53
2022/04/09 07:33:42;;;;;;;9.97;2.80;;;5.60;99.90;;;;;;5032621;28;20573;-52
2022/04/09 07:36:09;;;;;;;3.90;2.33;;;5.80;99.90;;;;;;5032956;28;20447;-52
2022/04/09 07:38:36;;;;;;;7.73;2.87;;;6.10;99.90;;;;;;5029352;28;20550;-53
2022/04/09 07:41:04;;;;;;;8.27;2.50;;;6.30;99.90;;;;;;5030332;28;20554;-53
2022/04/09 07:43:30;;;;;;;11.40;3.33;;;6.20;20.70;;;;;;5033691;28;20492;-52
2022/04/09 07:45:57;;;;;;;6.23;2.47;;;6.40;22.40;;;;;;5034447;28;20469;-52
2022/04/09 07:48:23;;;;;;;6.60;2.80;;;6.30;22.30;;;;;;5038253;28;20554;-58
2022/04/09 07:50:50;;;;;;;7.97;2.73;;;6.30;26.00;;;;;;5029869;28;20554;-53
2022/04/09 07:53:16;;;;;;;5.80;2.40;;;6.30;20.40;;;;;;5031750;28;20560;-53
2022/04/09 07:55:43;;;;;;;18.43;2.60;;;6.50;25.40;;;;;;5022957;28;21094;-53
2022/04/09 07:58:14;;;;;;;11.67;4.20;;;6.30;38.60;;;;;;5030307;28;20562;-54
2022/04/09 08:00:41;;;;;;;14.07;2.70;;;6.40;29.40;;;;;;5032230;28;20472;-52
2022/04/09 08:03:08;;;;;;;5.63;2.73;;;6.40;38.40;;;;;;5028263;28;20509;-52
2022/04/09 08:05:35;;;;;;;11.37;3.90;;;6.60;25.50;;;;;;5028438;28;20462;-52
2022/04/09 08:08:03;;;;;;;9.87;3.23;;;6.60;42.00;;;;;;5029992;28;20509;-52
2022/04/09 08:10:30;;;;;;;9.90;3.70;;;6.70;54.40;;;;;;5023559;28;20523;-53
2022/04/09 08:12:57;;;;;;;11.20;3.70;;;6.70;61.40;;;;;;5032067;28;20553;-55
2022/04/09 08:15:25;;;;;;;8.20;2.90;;;6.80;54.80;;;;;;5030155;28;20970;-52
2022/04/09 08:17:54;;;;;;;9.60;2.97;;;7.00;57.20;;;;;;5030029;28;20554;-53
2022/04/09 08:20:21;;;;;;;7.90;2.47;;;6.90;72.10;;;;;;5027744;28;20464;-52
2022/04/09 08:22:48;;;;;;;7.80;2.70;;;6.80;73.90;;;;;;5029421;28;20578;-54
2022/04/09 08:25:14;;;;;;;6.47;2.53;;;7.10;73.90;;;;;;5023560;28;20526;-52
2022/04/09 08:27:43;;;;;;;4.20;2.43;;;7.00;84.80;;;;;;5030785;28;20541;-53
2022/04/09 08:30:10;;;;;;;5.33;2.70;;;7.00;91.60;;;;;;5029846;28;20470;-53
2022/04/09 08:32:38;;;;;;;15.00;3.17;;;7.10;92.20;;;;;;5028895;28;20550;-53
2022/04/09 08:35:05;;;;;;;4.80;2.50;;;7.10;89.60;;;;;;5025437;28;20584;-53
2022/04/09 08:37:32;;;;;;;7.10;2.57;;;7.40;93.70;;;;;;5032597;28;20454;-55
2022/04/09 08:39:59;;;;;;;11.20;2.63;;;7.90;97.00;;;;;;5029970;28;20458;-53
2022/04/09 08:42:27;;;;;;;9.17;2.80;;;7.50;99.90;;;;;;5030339;28;20482;-52
2022/04/09 08:44:54;;;;;;;6.17;2.90;;;7.40;99.90;;;;;;5028185;28;20463;-53
2022/04/09 08:47:23;;;;;;;6.30;2.60;;;7.30;99.90;;;;;;5025848;28;20555;-53
2022/04/09 08:49:51;;;;;;;7.57;2.67;;;8.40;99.90;;;;;;5033346;28;20463;-54
2022/04/09 08:52:17;;;;;;;8.10;2.57;;;8.30;99.90;;;;;;5029639;28;20573;-54
2022/04/09 08:54:44;;;;;;;9.33;2.80;;;8.70;99.90;;;;;;5024988;28;20482;-54
2022/04/09 08:57:11;;;;;;;4.10;2.30;;;9.60;99.90;;;;;;5027143;28;20641;-54
2022/04/09 08:59:38;;;;;;;6.43;2.37;;;10.40;99.90;;;;;;5024441;28;20960;-53
2022/04/09 09:02:06;;;;;;;6.20;2.30;;;10.50;99.90;;;;;;5027336;28;20558;-53
2022/04/09 09:04:32;;;;;;;5.50;2.50;;;10.60;99.90;;;;;;5028171;28;20528;-52
2022/04/09 09:07:20;;;;;;;7.80;2.80;;;9.00;99.90;;;;;;5032696;28;20562;-54
2022/04/09 09:09:46;;;;;;;7.70;2.60;;;9.10;99.90;;;;;;5031091;28;20839;-54
2022/04/09 09:12:25;;;;;;;11.90;3.77;;;9.40;99.90;;;;;;5028281;28;20573;-54
2022/04/09 09:14:52;;;;;;;7.10;2.70;;;9.20;99.90;;;;;;5036010;28;20482;-52
2022/04/09 09:17:29;;;;;;;8.33;2.57;;;8.50;99.90;;;;;;5027717;28;20987;-53
2022/04/09 09:19:55;;;;;;;6.67;2.10;;;8.50;99.90;;;;;;5029565;28;20459;-52
2022/04/09 09:22:35;;;;;;;5.00;2.37;;;8.20;99.90;;;;;;5026293;28;20545;-52
2022/04/09 09:25:04;;;;;;;9.10;2.53;;;7.90;99.90;;;;;;5028425;28;20838;-53
2022/04/09 09:27:30;;;;;;;9.67;3.17;;;7.70;99.90;;;;;;5027285;28;20457;-54
2022/04/09 09:29:57;;;;;;;6.20;2.20;;;7.80;99.90;;;;;;5031750;28;20463;-54
2022/04/09 09:32:25;;;;;;;7.07;2.23;;;8.30;99.90;;;;;;5031241;28;20525;-53
2022/04/09 09:34:54;;;;;;;5.00;2.40;;;7.90;99.90;;;;;;5030684;28;20565;-54
2022/04/09 09:37:24;;;;;;;6.30;2.53;;;8.60;99.90;;;;;;5030886;28;20450;-54
2022/04/09 09:39:51;;;;;;;5.77;2.30;;;9.40;99.90;;;;;;5031596;28;20451;-54
2022/04/09 09:42:19;;;;;;;9.77;2.43;;;9.40;99.90;;;;;;5031220;28;20477;-54
2022/04/09 09:44:46;;;;;;;8.30;2.43;;;9.50;99.90;;;;;;5031153;28;20525;-54
2022/04/09 09:47:14;;;;;;;5.20;2.23;;;9.80;99.90;;;;;;5031366;28;20454;-54
2022/04/09 09:49:53;;;;;;;7.07;2.80;;;9.50;99.90;;;;;;5030389;28;20446;-54
2022/04/09 09:52:25;;;;;;;7.17;2.40;;;9.90;99.90;;;;;;5031318;28;20565;-53
2022/04/09 09:54:57;;;;;;;6.50;1.97;;;9.20;99.90;;;;;;5034172;28;20473;-53
2022/04/09 09:57:26;;;;;;;6.20;2.20;;;9.20;1.40;;;;;;5051283;28;20480;-53
2022/04/09 09:59:54;;;;;;;9.87;2.50;;;9.30;99.90;;;;;;5051204;28;20472;-53
2022/04/09 10:02:22;;;;;;;6.83;2.40;;;8.80;99.90;;;;;;5048720;28;20557;-53
2022/04/09 10:04:50;;;;;;;5.30;2.10;;;9.00;99.90;;;;;;5030627;28;20512;-52
2022/04/09 10:07:17;;;;;;;8.57;2.37;;;9.10;99.90;;;;;;5029522;28;21106;-52
2022/04/09 10:09:45;;;;;;;3.93;2.20;;;10.40;99.90;;;;;;5030440;28;21028;-53
2022/04/09 10:12:13;;;;;;;3.17;1.87;;;11.60;99.90;;;;;;5028735;28;20992;-54
2022/04/09 10:14:41;;;;;;;5.90;1.80;;;11.50;99.90;;;;;;5028084;28;20474;-52
2022/04/09 10:17:07;;;;;;;2.67;2.17;;;10.30;99.90;;;;;;5034139;28;20891;-53
2022/04/09 10:19:40;;;;;;;5.63;2.27;;;9.90;99.90;;;;;;5033390;28;20948;-53
2022/04/09 10:22:07;;;;;;;5.30;1.83;;;9.50;99.90;;;;;;5033992;28;20855;-52
2022/04/09 10:24:35;;;;;;;3.33;1.73;;;9.20;99.90;;;;;;5034463;28;20541;-53
2022/04/09 10:27:06;;;;;;;4.63;2.20;;;9.90;99.90;;;;;;5019387;28;20482;-54
2022/04/09 10:29:48;;;;;;;10.73;2.07;;;11.30;99.90;;;;;;5019955;28;20456;-54
2022/04/09 10:32:41;;;;;;;4.50;2.20;;;10.70;99.90;;;;;;5034005;28;20477;-53
2022/04/09 10:35:26;;;;;;;6.00;1.77;;;10.90;99.90;;;;;;5027363;28;20487;-53
2022/04/09 10:38:18;;;;;;;2.60;1.77;;;11.30;99.90;;;;;;5033548;28;20610;-52
2022/04/09 10:41:31;;;;;;;3.90;1.27;;;11.40;99.90;;;;;;5032485;28;20450;-53
2022/04/09 10:44:02;;;;;;;4.23;1.90;;;10.90;99.90;;;;;;5029343;28;20827;-53
2022/04/09 10:46:36;;;;;;;11.87;2.70;;;10.20;99.90;;;;;;5033994;28;20522;-52
2022/04/09 10:49:20;;;;;;;6.13;1.60;;;9.50;99.90;;;;;;5033789;28;20446;-55
2022/04/09 10:52:11;;;;;;;4.53;1.50;;;9.40;99.90;;;;;;5030781;28;20545;-53
2022/04/09 10:54:38;;;;;;;4.60;1.57;;;8.60;99.90;;;;;;5031044;28;20451;-51
2022/04/09 10:57:10;;;;;;;3.20;1.50;;;8.50;99.90;;;;;;5033729;28;20451;-53
2022/04/09 10:59:38;;;;;;;4.70;1.57;;;8.50;99.90;;;;;;5024578;28;20492;-53
2022/04/09 11:02:05;;;;;;;2.63;1.60;;;8.50;99.90;;;;;;5037672;28;20485;-55
2022/04/09 11:04:39;;;;;;;6.67;1.67;;;8.90;99.90;;;;;;5033153;28;20845;-54
2022/04/09 11:07:07;;;;;;;3.60;1.93;;;9.10;99.90;;;;;;5040109;28;20517;-54
2022/04/09 11:09:48;;;;;;;4.87;1.60;;;9.00;99.90;;;;;;5032400;28;20874;-52
2022/04/09 11:12:16;;;;;;;4.57;1.90;;;8.70;99.90;;;;;;5034910;28;20550;-54
2022/04/09 11:14:47;;;;;;;3.03;1.60;;;8.30;99.90;;;;;;5035481;28;20451;-53
2022/04/09 11:17:33;;;;;;;5.10;2.10;;;8.40;99.90;;;;;;5033702;28;20565;-52
2022/04/09 11:20:05;;;;;;;2.33;1.73;;;8.60;99.90;;;;;;5033293;28;20529;-52
2022/04/09 11:22:34;;;;;;;6.83;2.37;;;8.70;99.90;;;;;;5033254;28;20879;-53
2022/04/09 11:25:01;;;;;;;1.97;1.67;;;8.50;99.90;;;;;;5033560;28;20454;-53
2022/04/09 11:27:28;;;;;;;7.27;2.10;;;8.50;99.90;;;;;;5032791;28;21014;-55
2022/04/09 11:29:57;;;;;;;4.43;1.80;;;8.50;99.90;;;;;;5033252;28;20450;-53
2022/04/09 11:32:25;;;;;;;4.53;1.73;;;8.60;99.90;;;;;;5033035;28;21076;-53
2022/04/09 11:34:54;;;;;;;4.30;1.60;;;8.60;99.90;;;;;;5032977;28;20529;-53
2022/04/09 11:37:21;;;;;;;4.23;1.80;;;8.60;99.90;;;;;;5033342;28;20887;-53
2022/04/09 11:39:50;;;;;;;2.87;1.50;;;9.00;99.90;;;;;;5032910;28;20454;-53
2022/04/09 11:42:17;;;;;;;4.37;1.70;;;9.70;99.90;;;;;;5032689;28;20471;-53
2022/04/09 11:44:44;;;;;;;2.83;1.63;;;10.00;99.90;;;;;;5032966;28;20535;-54
2022/04/09 11:47:14;;;;;;;5.67;1.57;;;10.50;1.40;;;;;;5032806;28;20537;-53
2022/04/09 11:49:42;;;;;;;2.63;1.73;;;10.70;99.90;;;;;;5032597;28;20939;-53
2022/04/09 11:52:09;;;;;;;5.53;2.57;;;10.40;99.90;;;;;;5023044;28;20480;-53
2022/04/09 11:54:38;;;;;;;4.23;1.43;;;9.90;99.90;;;;;;5028780;28;20996;-52
2022/04/09 11:57:09;;;;;;;5.70;2.40;;;10.40;99.90;;;;;;5030684;28;20486;-53
2022/04/09 11:59:35;;;;;;;2.03;1.40;;;11.00;99.90;;;;;;5028056;28;20526;-55
2022/04/09 12:02:02;;;;;;;8.63;1.17;;;11.40;99.90;;;;;;5031419;28;20553;-53
2022/04/09 12:04:35;;;;;;;4.53;1.10;;;11.60;99.90;;;;;;5032705;28;20948;-55
2022/04/09 12:07:03;;;;;;;3.27;1.33;;;11.20;99.90;;;;;;5020923;28;20542;-52
2022/04/09 12:09:31;;;;;;;2.30;1.33;;;11.00;99.90;;;;;;5031997;28;20447;-52
2022/04/09 12:12:01;;;;;;;0.87;0.87;;;10.30;99.90;;;;;;5030033;28;20466;-53
2022/04/09 12:14:27;;;;;;;2.20;1.00;;;10.70;99.90;;;;;;5030012;28;20447;-53
2022/04/09 12:16:54;;;;;;;1.10;0.93;;;10.50;99.90;;;;;;5032370;28;20905;-53
2022/04/09 12:19:28;;;;;;;2.63;1.23;;;10.20;99.90;;;;;;5032070;28;20454;-52
2022/04/09 12:22:10;;;;;;;1.23;1.00;;;9.70;99.90;;;;;;5037929;28;20489;-53
2022/04/09 12:24:46;;;;;;;1.43;1.00;;;9.40;99.90;;;;;;5034945;28;20977;-53
2022/04/09 12:27:12;;;;;;;1.77;1.23;;;8.90;99.90;;;;;;5031278;28;20435;-51
2022/04/09 12:29:48;;;;;;;3.27;1.00;;;8.40;99.90;;;;;;5030860;28;21021;-53
2022/04/09 12:32:17;;;;;;;1.70;1.30;;;7.90;99.90;;;;;;5031424;28;21038;-52
2022/04/09 12:34:55;;;;;;;3.27;1.43;;;7.80;65.00;;;;;;5031898;28;20454;-53
2022/04/09 12:37:24;;;;;;;4.23;1.30;;;7.60;61.40;;;;;;5031965;28;20512;-53
2022/04/09 12:39:51;;;;;;;3.23;0.83;;;7.50;45.90;;;;;;5032192;28;20451;-52
2022/04/09 12:42:30;;;;;;;7.20;1.43;;;7.50;29.70;;;;;;5031866;28;20972;-54
2022/04/09 12:45:13;;;;;;;2.83;1.70;;;7.50;50.10;;;;;;5032670;28;20978;-53
2022/04/09 12:47:40;;;;;;;4.07;1.70;;;7.70;25.30;;;;;;5031394;28;20500;-54
2022/04/09 12:50:19;;;;;;;4.40;1.87;;;8.30;30.00;;;;;;5035432;28;20447;-53
2022/04/09 12:52:46;;;;;;;2.80;1.80;;;8.80;91.10;;;;;;5031814;28;20561;-52
2022/04/09 12:55:16;;;;;;;3.10;1.20;;;9.20;99.90;;;;;;5037546;28;20450;-52
2022/04/09 12:57:43;;;;;;;3.37;1.10;;;9.50;99.90;;;;;;5031550;28;20454;-54
2022/04/09 13:00:10;;;;;;;1.63;0.80;;;9.80;99.90;;;;;;5033276;28;20541;-54
2022/04/09 13:02:37;;;;;;;2.43;0.80;;;10.00;99.90;;;;;;5030938;28;20554;-52